sensor_id;sensor_type;location;lat;lon;timestamp;P1;durP1;ratioP1;P2;durP2;ratioP2
3849;SDS011;1940;51.052;13.678;2023-02-02T00:01:49;3.47;;;1.37;;
3849;SDS011;1940;51.052;13.678;2023-02-02T00:04:22;2.67;;;1.40;;
3849;SDS011;1940;51.052;13.678;2023-02-02T00:06:51;5.50;;;1.63;;
3849;SDS011;1940;51.052;13.678;2023-02-02T00:09:18;3.90;;;1.67;;
3849;SDS011;1940;51.052;13.678;2023-02-02T00:11:45;2.00;;;1.10;;
3849;SDS011;1940;51.052;13.678;2023-02-02T00:14:12;4.87;;;1.80;;
3849;SDS011;1940;51.052;13.678;2023-02-02T00:16:45;4.83;;;1.50;;
3849;SDS011;1940;51.052;13.678;2023-02-02T00:19:29;2.00;;;1.70;;
3849;SDS011;1940;51.052;13.678;2023-02-02T00:21:56;4.40;;;1.27;;
3849;SDS011;1940;51.052;13.678;2023-02-02T00:24:22;1.97;;;1.30;;
3849;SDS011;1940;51.052;13.678;2023-02-02T00:26:49;6.00;;;1.70;;
3849;SDS011;1940;51.052;13.678;2023-02-02T00:29:18;6.00;;;2.13;;
3849;SDS011;1940;51.052;13.678;2023-02-02T00:31:45;7.70;;;1.47;;
3849;SDS011;1940;51.052;13.678;2023-02-02T00:34:11;3.77;;;1.60;;
3849;SDS011;1940;51.052;13.678;2023-02-02T00:36:37;5.10;;;1.60;;
3849;SDS011;1940;51.052;13.678;2023-02-02T00:39:04;4.33;;;1.73;;
3849;SDS011;1940;51.052;13.678;2023-02-02T00:41:30;3.47;;;1.37;;
3849;SDS011;1940;51.052;13.678;2023-02-02T00:43:55;7.17;;;2.07;;
3849;SDS011;1940;51.052;13.678;2023-02-02T00:46:39;8.13;;;2.10;;
3849;SDS011;1940;51.052;13.678;2023-02-02T00:49:06;2.93;;;1.40;;
3849;SDS011;1940;51.052;13.678;2023-02-02T00:51:32;3.23;;;1.37;;
3849;SDS011;1940;51.052;13.678;2023-02-02T00:53:58;3.23;;;1.37;;
3849;SDS011;1940;51.052;13.678;2023-02-02T00:56:24;5.70;;;1.63;;
3849;SDS011;1940;51.052;13.678;2023-02-02T00:58:50;9.70;;;1.60;;
3849;SDS011;1940;51.052;13.678;2023-02-02T01:01:16;6.73;;;1.50;;
3849;SDS011;1940;51.052;13.678;2023-02-02T01:03:42;6.87;;;1.70;;
3849;SDS011;1940;51.052;13.678;2023-02-02T01:06:08;3.20;;;1.60;;
3849;SDS011;1940;51.052;13.678;2023-02-02T01:08:33;8.63;;;2.20;;
3849;SDS011;1940;51.052;13.678;2023-02-02T01:10:59;3.13;;;1.50;;
3849;SDS011;1940;51.052;13.678;2023-02-02T01:13:24;2.07;;;1.30;;
3849;SDS011;1940;51.052;13.678;2023-02-02T01:15:54;7.60;;;1.80;;
3849;SDS011;1940;51.052;13.678;2023-02-02T01:18:20;7.07;;;1.90;;
3849;SDS011;1940;51.052;13.678;2023-02-02T01:20:45;1.30;;;1.20;;
3849;SDS011;1940;51.052;13.678;2023-02-02T01:23:11;4.07;;;1.60;;
3849;SDS011;1940;51.052;13.678;2023-02-02T01:25:36;6.80;;;1.43;;
3849;SDS011;1940;51.052;13.678;2023-02-02T01:28:02;4.53;;;1.90;;
3849;SDS011;1940;51.052;13.678;2023-02-02T01:30:28;4.20;;;1.30;;
3849;SDS011;1940;51.052;13.678;2023-02-02T01:32:54;3.27;;;1.60;;
3849;SDS011;1940;51.052;13.678;2023-02-02T01:35:19;11.53;;;1.60;;
3849;SDS011;1940;51.052;13.678;2023-02-02T01:37:45;3.93;;;1.20;;
3849;SDS011;1940;51.052;13.678;2023-02-02T01:40:10;3.47;;;1.40;;
3849;SDS011;1940;51.052;13.678;2023-02-02T01:42:36;2.53;;;1.30;;
3849;SDS011;1940;51.052;13.678;2023-02-02T01:45:23;5.13;;;1.70;;
3849;SDS011;1940;51.052;13.678;2023-02-02T01:47:53;4.70;;;1.50;;
3849;SDS011;1940;51.052;13.678;2023-02-02T01:50:23;4.60;;;1.53;;
3849;SDS011;1940;51.052;13.678;2023-02-02T01:52:52;6.10;;;2.27;;
3849;SDS011;1940;51.052;13.678;2023-02-02T01:55:20;5.10;;;1.40;;
3849;SDS011;1940;51.052;13.678;2023-02-02T01:57:54;10.30;;;1.77;;
3849;SDS011;1940;51.052;13.678;2023-02-02T02:00:23;4.07;;;1.47;;
3849;SDS011;1940;51.052;13.678;2023-02-02T02:02:52;8.97;;;1.80;;
3849;SDS011;1940;51.052;13.678;2023-02-02T02:05:23;7.97;;;1.70;;
3849;SDS011;1940;51.052;13.678;2023-02-02T02:07:53;4.13;;;1.40;;
3849;SDS011;1940;51.052;13.678;2023-02-02T02:10:23;8.63;;;1.40;;
3849;SDS011;1940;51.052;13.678;2023-02-02T02:12:48;4.63;;;1.90;;
3849;SDS011;1940;51.052;13.678;2023-02-02T02:15:15;3.50;;;1.40;;
3849;SDS011;1940;51.052;13.678;2023-02-02T02:18:10;6.00;;;1.30;;
3849;SDS011;1940;51.052;13.678;2023-02-02T02:21:00;2.70;;;1.03;;
3849;SDS011;1940;51.052;13.678;2023-02-02T02:23:56;5.10;;;2.10;;
3849;SDS011;1940;51.052;13.678;2023-02-02T02:27:12;4.57;;;1.50;;
3849;SDS011;1940;51.052;13.678;2023-02-02T02:30:17;5.17;;;1.40;;
3849;SDS011;1940;51.052;13.678;2023-02-02T02:33:03;6.30;;;1.40;;
3849;SDS011;1940;51.052;13.678;2023-02-02T02:35:58;6.87;;;1.57;;
3849;SDS011;1940;51.052;13.678;2023-02-02T02:41:47;5.50;;;1.40;;
3849;SDS011;1940;51.052;13.678;2023-02-02T02:44:17;7.27;;;1.50;;
3849;SDS011;1940;51.052;13.678;2023-02-02T02:46:44;3.87;;;1.50;;
3849;SDS011;1940;51.052;13.678;2023-02-02T02:49:11;7.00;;;1.20;;
3849;SDS011;1940;51.052;13.678;2023-02-02T02:51:47;2.83;;;1.40;;
3849;SDS011;1940;51.052;13.678;2023-02-02T02:54:16;2.97;;;1.60;;
3849;SDS011;1940;51.052;13.678;2023-02-02T03:04:58;3.53;;;1.60;;
3849;SDS011;1940;51.052;13.678;2023-02-02T03:07:57;4.23;;;1.20;;
3849;SDS011;1940;51.052;13.678;2023-02-02T03:10:44;5.73;;;1.97;;
3849;SDS011;1940;51.052;13.678;2023-02-02T03:13:11;4.10;;;1.47;;
3849;SDS011;1940;51.052;13.678;2023-02-02T03:15:39;11.20;;;1.83;;
3849;SDS011;1940;51.052;13.678;2023-02-02T03:18:06;2.70;;;1.23;;
3849;SDS011;1940;51.052;13.678;2023-02-02T03:20:31;9.43;;;1.50;;
3849;SDS011;1940;51.052;13.678;2023-02-02T03:22:58;4.83;;;1.30;;
3849;SDS011;1940;51.052;13.678;2023-02-02T03:25:23;3.17;;;1.30;;
3849;SDS011;1940;51.052;13.678;2023-02-02T03:27:49;1.87;;;1.13;;
3849;SDS011;1940;51.052;13.678;2023-02-02T03:30:14;4.87;;;1.53;;
3849;SDS011;1940;51.052;13.678;2023-02-02T03:32:41;3.90;;;1.30;;
3849;SDS011;1940;51.052;13.678;2023-02-02T03:35:07;3.23;;;1.30;;
3849;SDS011;1940;51.052;13.678;2023-02-02T03:37:33;6.50;;;1.30;;
3849;SDS011;1940;51.052;13.678;2023-02-02T03:39:58;5.87;;;1.23;;
3849;SDS011;1940;51.052;13.678;2023-02-02T03:42:24;3.17;;;1.70;;
3849;SDS011;1940;51.052;13.678;2023-02-02T03:44:50;2.70;;;1.23;;
3849;SDS011;1940;51.052;13.678;2023-02-02T03:47:15;3.60;;;1.37;;
3849;SDS011;1940;51.052;13.678;2023-02-02T03:49:41;3.43;;;1.77;;
3849;SDS011;1940;51.052;13.678;2023-02-02T03:52:07;6.43;;;1.63;;
3849;SDS011;1940;51.052;13.678;2023-02-02T03:54:32;2.57;;;1.40;;
3849;SDS011;1940;51.052;13.678;2023-02-02T03:56:58;7.10;;;1.60;;
3849;SDS011;1940;51.052;13.678;2023-02-02T03:59:23;3.50;;;1.40;;
3849;SDS011;1940;51.052;13.678;2023-02-02T04:01:49;6.63;;;1.43;;
3849;SDS011;1940;51.052;13.678;2023-02-02T04:04:14;3.63;;;1.53;;
3849;SDS011;1940;51.052;13.678;2023-02-02T04:06:40;4.87;;;1.20;;
3849;SDS011;1940;51.052;13.678;2023-02-02T04:09:06;3.63;;;1.50;;
3849;SDS011;1940;51.052;13.678;2023-02-02T04:11:31;4.73;;;1.53;;
3849;SDS011;1940;51.052;13.678;2023-02-02T04:13:57;17.03;;;1.30;;
3849;SDS011;1940;51.052;13.678;2023-02-02T04:16:22;5.23;;;1.43;;
3849;SDS011;1940;51.052;13.678;2023-02-02T04:18:48;3.13;;;1.10;;
3849;SDS011;1940;51.052;13.678;2023-02-02T04:21:13;7.80;;;2.10;;
3849;SDS011;1940;51.052;13.678;2023-02-02T04:23:39;5.70;;;1.80;;
3849;SDS011;1940;51.052;13.678;2023-02-02T04:26:04;4.07;;;1.57;;
3849;SDS011;1940;51.052;13.678;2023-02-02T04:28:30;5.70;;;1.37;;
3849;SDS011;1940;51.052;13.678;2023-02-02T04:30:56;7.80;;;1.50;;
3849;SDS011;1940;51.052;13.678;2023-02-02T04:33:22;9.30;;;1.70;;
3849;SDS011;1940;51.052;13.678;2023-02-02T04:35:49;4.10;;;1.30;;
3849;SDS011;1940;51.052;13.678;2023-02-02T04:38:14;5.23;;;1.23;;
3849;SDS011;1940;51.052;13.678;2023-02-02T04:40:41;3.13;;;1.30;;
3849;SDS011;1940;51.052;13.678;2023-02-02T04:43:08;8.53;;;2.07;;
3849;SDS011;1940;51.052;13.678;2023-02-02T04:45:34;4.73;;;1.53;;
3849;SDS011;1940;51.052;13.678;2023-02-02T04:47:59;2.40;;;1.07;;
3849;SDS011;1940;51.052;13.678;2023-02-02T04:50:25;6.97;;;1.40;;
3849;SDS011;1940;51.052;13.678;2023-02-02T04:52:51;7.70;;;1.50;;
3849;SDS011;1940;51.052;13.678;2023-02-02T04:55:16;4.97;;;1.60;;
3849;SDS011;1940;51.052;13.678;2023-02-02T04:57:42;3.47;;;1.50;;
3849;SDS011;1940;51.052;13.678;2023-02-02T05:00:08;8.47;;;1.60;;
3849;SDS011;1940;51.052;13.678;2023-02-02T05:02:38;6.80;;;1.97;;
3849;SDS011;1940;51.052;13.678;2023-02-02T05:05:05;7.83;;;1.73;;
3849;SDS011;1940;51.052;13.678;2023-02-02T05:07:32;10.10;;;1.67;;
3849;SDS011;1940;51.052;13.678;2023-02-02T05:09:58;6.50;;;1.40;;
3849;SDS011;1940;51.052;13.678;2023-02-02T05:12:23;5.10;;;1.43;;
3849;SDS011;1940;51.052;13.678;2023-02-02T05:14:49;8.47;;;1.97;;
3849;SDS011;1940;51.052;13.678;2023-02-02T05:17:15;4.50;;;1.40;;
3849;SDS011;1940;51.052;13.678;2023-02-02T05:19:40;8.83;;;2.10;;
3849;SDS011;1940;51.052;13.678;2023-02-02T05:22:06;7.07;;;1.97;;
3849;SDS011;1940;51.052;13.678;2023-02-02T05:24:32;6.20;;;1.20;;
3849;SDS011;1940;51.052;13.678;2023-02-02T05:26:57;9.50;;;1.73;;
3849;SDS011;1940;51.052;13.678;2023-02-02T05:29:25;3.10;;;1.50;;
3849;SDS011;1940;51.052;13.678;2023-02-02T05:31:51;3.17;;;1.43;;
3849;SDS011;1940;51.052;13.678;2023-02-02T05:34:17;6.27;;;1.60;;
3849;SDS011;1940;51.052;13.678;2023-02-02T05:36:42;8.53;;;1.10;;
3849;SDS011;1940;51.052;13.678;2023-02-02T05:39:08;2.67;;;1.40;;
3849;SDS011;1940;51.052;13.678;2023-02-02T05:41:34;4.00;;;1.33;;
3849;SDS011;1940;51.052;13.678;2023-02-02T05:44:00;4.87;;;1.50;;
3849;SDS011;1940;51.052;13.678;2023-02-02T05:46:26;9.17;;;1.60;;
3849;SDS011;1940;51.052;13.678;2023-02-02T05:48:51;7.77;;;1.67;;
3849;SDS011;1940;51.052;13.678;2023-02-02T05:51:18;7.77;;;1.40;;
3849;SDS011;1940;51.052;13.678;2023-02-02T05:53:53;9.50;;;1.30;;
3849;SDS011;1940;51.052;13.678;2023-02-02T05:56:19;5.30;;;1.67;;
3849;SDS011;1940;51.052;13.678;2023-02-02T05:58:44;7.57;;;1.33;;
3849;SDS011;1940;51.052;13.678;2023-02-02T06:01:12;7.37;;;1.20;;
3849;SDS011;1940;51.052;13.678;2023-02-02T06:03:38;4.77;;;1.60;;
3849;SDS011;1940;51.052;13.678;2023-02-02T06:06:03;8.37;;;2.10;;
3849;SDS011;1940;51.052;13.678;2023-02-02T06:08:29;4.27;;;1.60;;
3849;SDS011;1940;51.052;13.678;2023-02-02T06:10:55;4.77;;;1.33;;
3849;SDS011;1940;51.052;13.678;2023-02-02T06:13:23;7.93;;;1.30;;
3849;SDS011;1940;51.052;13.678;2023-02-02T06:15:48;5.93;;;1.50;;
3849;SDS011;1940;51.052;13.678;2023-02-02T06:18:14;5.70;;;1.77;;
3849;SDS011;1940;51.052;13.678;2023-02-02T06:20:39;5.63;;;1.77;;
3849;SDS011;1940;51.052;13.678;2023-02-02T06:23:05;8.40;;;1.80;;
3849;SDS011;1940;51.052;13.678;2023-02-02T06:25:30;11.07;;;2.07;;
3849;SDS011;1940;51.052;13.678;2023-02-02T06:27:58;6.13;;;1.77;;
3849;SDS011;1940;51.052;13.678;2023-02-02T06:30:25;5.90;;;2.00;;
3849;SDS011;1940;51.052;13.678;2023-02-02T06:32:53;6.53;;;1.87;;
3849;SDS011;1940;51.052;13.678;2023-02-02T06:35:19;13.63;;;1.67;;
3849;SDS011;1940;51.052;13.678;2023-02-02T06:37:44;3.00;;;1.20;;
3849;SDS011;1940;51.052;13.678;2023-02-02T06:40:10;10.60;;;2.03;;
3849;SDS011;1940;51.052;13.678;2023-02-02T06:42:37;3.67;;;1.40;;
3849;SDS011;1940;51.052;13.678;2023-02-02T06:45:03;5.27;;;1.77;;
3849;SDS011;1940;51.052;13.678;2023-02-02T06:47:31;12.03;;;1.30;;
3849;SDS011;1940;51.052;13.678;2023-02-02T06:49:57;7.13;;;1.70;;
3849;SDS011;1940;51.052;13.678;2023-02-02T06:52:22;8.20;;;1.67;;
3849;SDS011;1940;51.052;13.678;2023-02-02T06:54:48;4.17;;;1.33;;
3849;SDS011;1940;51.052;13.678;2023-02-02T06:57:14;10.30;;;2.10;;
3849;SDS011;1940;51.052;13.678;2023-02-02T06:59:39;8.37;;;1.93;;
3849;SDS011;1940;51.052;13.678;2023-02-02T07:02:07;7.07;;;1.60;;
3849;SDS011;1940;51.052;13.678;2023-02-02T07:04:37;1.90;;;1.37;;
3849;SDS011;1940;51.052;13.678;2023-02-02T07:07:03;6.13;;;1.00;;
3849;SDS011;1940;51.052;13.678;2023-02-02T07:09:31;6.87;;;1.40;;
3849;SDS011;1940;51.052;13.678;2023-02-02T07:11:57;10.53;;;1.57;;
3849;SDS011;1940;51.052;13.678;2023-02-02T07:14:23;8.20;;;1.83;;
3849;SDS011;1940;51.052;13.678;2023-02-02T07:16:48;7.43;;;1.40;;
3849;SDS011;1940;51.052;13.678;2023-02-02T07:19:14;6.00;;;2.00;;
3849;SDS011;1940;51.052;13.678;2023-02-02T07:21:39;6.40;;;2.00;;
3849;SDS011;1940;51.052;13.678;2023-02-02T07:24:05;5.67;;;1.70;;
3849;SDS011;1940;51.052;13.678;2023-02-02T07:26:32;5.97;;;1.53;;
3849;SDS011;1940;51.052;13.678;2023-02-02T07:28:59;7.50;;;1.60;;
3849;SDS011;1940;51.052;13.678;2023-02-02T07:31:25;9.83;;;1.47;;
3849;SDS011;1940;51.052;13.678;2023-02-02T07:33:51;10.37;;;1.97;;
3849;SDS011;1940;51.052;13.678;2023-02-02T07:36:18;6.93;;;2.07;;
3849;SDS011;1940;51.052;13.678;2023-02-02T07:38:45;6.43;;;1.60;;
3849;SDS011;1940;51.052;13.678;2023-02-02T07:41:12;8.73;;;1.70;;
3849;SDS011;1940;51.052;13.678;2023-02-02T07:43:38;6.17;;;1.70;;
3849;SDS011;1940;51.052;13.678;2023-02-02T07:46:05;7.30;;;1.80;;
3849;SDS011;1940;51.052;13.678;2023-02-02T07:48:32;7.00;;;1.70;;
3849;SDS011;1940;51.052;13.678;2023-02-02T07:50:59;12.40;;;1.70;;
3849;SDS011;1940;51.052;13.678;2023-02-02T07:53:26;5.40;;;2.30;;
3849;SDS011;1940;51.052;13.678;2023-02-02T07:55:51;6.30;;;1.47;;
3849;SDS011;1940;51.052;13.678;2023-02-02T07:58:17;7.17;;;1.70;;
3849;SDS011;1940;51.052;13.678;2023-02-02T08:00:42;6.10;;;1.80;;
3849;SDS011;1940;51.052;13.678;2023-02-02T08:03:09;7.23;;;1.80;;
3849;SDS011;1940;51.052;13.678;2023-02-02T08:05:36;6.20;;;1.93;;
3849;SDS011;1940;51.052;13.678;2023-02-02T08:08:02;8.03;;;1.80;;
3849;SDS011;1940;51.052;13.678;2023-02-02T08:10:28;12.47;;;2.27;;
3849;SDS011;1940;51.052;13.678;2023-02-02T08:12:54;2.00;;;1.33;;
3849;SDS011;1940;51.052;13.678;2023-02-02T08:15:20;10.10;;;1.87;;
3849;SDS011;1940;51.052;13.678;2023-02-02T08:17:45;6.87;;;1.77;;
3849;SDS011;1940;51.052;13.678;2023-02-02T08:20:13;15.43;;;2.30;;
3849;SDS011;1940;51.052;13.678;2023-02-02T08:22:39;19.63;;;2.50;;
3849;SDS011;1940;51.052;13.678;2023-02-02T08:25:05;7.03;;;1.77;;
3849;SDS011;1940;51.052;13.678;2023-02-02T08:27:31;16.77;;;2.13;;
3849;SDS011;1940;51.052;13.678;2023-02-02T08:29:57;13.03;;;2.27;;
3849;SDS011;1940;51.052;13.678;2023-02-02T08:32:22;12.17;;;1.60;;
3849;SDS011;1940;51.052;13.678;2023-02-02T08:34:48;12.40;;;1.73;;
3849;SDS011;1940;51.052;13.678;2023-02-02T08:37:15;6.47;;;1.90;;
3849;SDS011;1940;51.052;13.678;2023-02-02T08:39:41;6.47;;;1.50;;
3849;SDS011;1940;51.052;13.678;2023-02-02T08:42:07;7.80;;;1.80;;
3849;SDS011;1940;51.052;13.678;2023-02-02T08:44:32;6.23;;;1.70;;
3849;SDS011;1940;51.052;13.678;2023-02-02T08:47:00;10.43;;;2.50;;
3849;SDS011;1940;51.052;13.678;2023-02-02T08:49:25;10.73;;;2.20;;
3849;SDS011;1940;51.052;13.678;2023-02-02T08:51:51;7.90;;;1.70;;
3849;SDS011;1940;51.052;13.678;2023-02-02T08:54:17;7.67;;;1.77;;
3849;SDS011;1940;51.052;13.678;2023-02-02T08:56:42;7.90;;;2.13;;
3849;SDS011;1940;51.052;13.678;2023-02-02T08:59:08;5.10;;;1.93;;
3849;SDS011;1940;51.052;13.678;2023-02-02T09:01:34;9.90;;;2.33;;
3849;SDS011;1940;51.052;13.678;2023-02-02T09:04:04;18.37;;;2.70;;
3849;SDS011;1940;51.052;13.678;2023-02-02T09:06:32;6.40;;;2.00;;
3849;SDS011;1940;51.052;13.678;2023-02-02T09:08:59;8.40;;;2.87;;
3849;SDS011;1940;51.052;13.678;2023-02-02T09:11:25;3.40;;;1.50;;
3849;SDS011;1940;51.052;13.678;2023-02-02T09:13:55;9.63;;;2.13;;
3849;SDS011;1940;51.052;13.678;2023-02-02T09:16:22;11.80;;;2.00;;
3849;SDS011;1940;51.052;13.678;2023-02-02T09:18:49;8.10;;;2.17;;
3849;SDS011;1940;51.052;13.678;2023-02-02T09:21:15;12.40;;;1.80;;
3849;SDS011;1940;51.052;13.678;2023-02-02T09:23:42;9.93;;;1.90;;
3849;SDS011;1940;51.052;13.678;2023-02-02T09:26:41;7.47;;;1.90;;
3849;SDS011;1940;51.052;13.678;2023-02-02T09:29:01;9.30;;;2.20;;
3849;SDS011;1940;51.052;13.678;2023-02-02T09:31:29;7.77;;;1.97;;
3849;SDS011;1940;51.052;13.678;2023-02-02T09:34:00;12.13;;;2.10;;
3849;SDS011;1940;51.052;13.678;2023-02-02T09:36:27;5.30;;;2.17;;
3849;SDS011;1940;51.052;13.678;2023-02-02T09:38:53;4.93;;;1.73;;
3849;SDS011;1940;51.052;13.678;2023-02-02T09:47:18;5.53;;;1.77;;
3849;SDS011;1940;51.052;13.678;2023-02-02T09:55:16;9.87;;;1.90;;
3849;SDS011;1940;51.052;13.678;2023-02-02T09:57:47;11.77;;;2.03;;
3849;SDS011;1940;51.052;13.678;2023-02-02T10:00:25;12.17;;;2.33;;
3849;SDS011;1940;51.052;13.678;2023-02-02T10:03:01;6.30;;;2.00;;
3849;SDS011;1940;51.052;13.678;2023-02-02T10:05:48;3.90;;;1.40;;
3849;SDS011;1940;51.052;13.678;2023-02-02T10:08:23;6.40;;;1.90;;
3849;SDS011;1940;51.052;13.678;2023-02-02T10:10:57;9.00;;;2.40;;
3849;SDS011;1940;51.052;13.678;2023-02-02T10:13:27;15.30;;;2.37;;
3849;SDS011;1940;51.052;13.678;2023-02-02T10:15:59;5.57;;;2.00;;
3849;SDS011;1940;51.052;13.678;2023-02-02T10:18:36;11.63;;;2.70;;
3849;SDS011;1940;51.052;13.678;2023-02-02T10:21:09;6.30;;;2.10;;
3849;SDS011;1940;51.052;13.678;2023-02-02T10:23:57;10.60;;;2.50;;
3849;SDS011;1940;51.052;13.678;2023-02-02T10:26:27;9.40;;;2.13;;
3849;SDS011;1940;51.052;13.678;2023-02-02T10:29:10;7.30;;;1.90;;
3849;SDS011;1940;51.052;13.678;2023-02-02T10:37:47;12.17;;;2.00;;
3849;SDS011;1940;51.052;13.678;2023-02-02T10:40:16;12.80;;;2.40;;
3849;SDS011;1940;51.052;13.678;2023-02-02T10:45:42;12.90;;;2.10;;
3849;SDS011;1940;51.052;13.678;2023-02-02T10:48:19;10.50;;;3.00;;
3849;SDS011;1940;51.052;13.678;2023-02-02T10:50:53;6.30;;;2.20;;
3849;SDS011;1940;51.052;13.678;2023-02-02T10:53:21;8.60;;;2.10;;
3849;SDS011;1940;51.052;13.678;2023-02-02T10:55:52;6.20;;;2.17;;
3849;SDS011;1940;51.052;13.678;2023-02-02T10:58:28;12.23;;;3.57;;
3849;SDS011;1940;51.052;13.678;2023-02-02T11:01:03;8.90;;;2.63;;
3849;SDS011;1940;51.052;13.678;2023-02-02T11:03:32;11.80;;;2.40;;
3849;SDS011;1940;51.052;13.678;2023-02-02T11:05:59;6.43;;;2.43;;
3849;SDS011;1940;51.052;13.678;2023-02-02T11:08:48;15.50;;;3.13;;
3849;SDS011;1940;51.052;13.678;2023-02-02T11:11:29;10.17;;;2.13;;
3849;SDS011;1940;51.052;13.678;2023-02-02T11:16:36;15.13;;;2.97;;
3849;SDS011;1940;51.052;13.678;2023-02-02T11:21:47;7.97;;;1.93;;
3849;SDS011;1940;51.052;13.678;2023-02-02T11:24:22;7.53;;;2.40;;
3849;SDS011;1940;51.052;13.678;2023-02-02T11:26:52;13.87;;;2.53;;
3849;SDS011;1940;51.052;13.678;2023-02-02T11:29:45;14.93;;;2.83;;
3849;SDS011;1940;51.052;13.678;2023-02-02T11:34:47;11.73;;;3.00;;
3849;SDS011;1940;51.052;13.678;2023-02-02T11:37:14;9.10;;;2.30;;
3849;SDS011;1940;51.052;13.678;2023-02-02T11:39:45;5.93;;;2.13;;
3849;SDS011;1940;51.052;13.678;2023-02-02T11:42:14;4.67;;;2.37;;
3849;SDS011;1940;51.052;13.678;2023-02-02T11:44:43;16.00;;;3.20;;
3849;SDS011;1940;51.052;13.678;2023-02-02T11:47:31;17.87;;;4.80;;
3849;SDS011;1940;51.052;13.678;2023-02-02T11:49:58;14.27;;;2.13;;
3849;SDS011;1940;51.052;13.678;2023-02-02T11:52:26;12.60;;;2.73;;
3849;SDS011;1940;51.052;13.678;2023-02-02T11:54:55;6.10;;;2.20;;
3849;SDS011;1940;51.052;13.678;2023-02-02T11:57:33;10.10;;;2.37;;
3849;SDS011;1940;51.052;13.678;2023-02-02T12:00:14;6.33;;;2.43;;
3849;SDS011;1940;51.052;13.678;2023-02-02T12:02:50;13.07;;;2.70;;
3849;SDS011;1940;51.052;13.678;2023-02-02T12:07:45;12.47;;;2.37;;
3849;SDS011;1940;51.052;13.678;2023-02-02T12:13:05;6.70;;;2.17;;
3849;SDS011;1940;51.052;13.678;2023-02-02T12:15:44;11.40;;;3.13;;
3849;SDS011;1940;51.052;13.678;2023-02-02T12:21:41;11.30;;;3.00;;
3849;SDS011;1940;51.052;13.678;2023-02-02T12:24:30;7.50;;;2.60;;
3849;SDS011;1940;51.052;13.678;2023-02-02T12:27:16;10.47;;;2.47;;
3849;SDS011;1940;51.052;13.678;2023-02-02T12:30:14;5.53;;;2.40;;
3849;SDS011;1940;51.052;13.678;2023-02-02T12:35:39;7.33;;;2.50;;
3849;SDS011;1940;51.052;13.678;2023-02-02T12:38:43;9.60;;;1.90;;
3849;SDS011;1940;51.052;13.678;2023-02-02T12:44:31;13.60;;;2.30;;
3849;SDS011;1940;51.052;13.678;2023-02-02T12:47:19;14.03;;;2.57;;
3849;SDS011;1940;51.052;13.678;2023-02-02T12:50:11;8.57;;;2.03;;
3849;SDS011;1940;51.052;13.678;2023-02-02T12:56:02;5.03;;;1.73;;
3849;SDS011;1940;51.052;13.678;2023-02-02T13:01:21;4.57;;;1.93;;
3849;SDS011;1940;51.052;13.678;2023-02-02T13:04:14;6.70;;;2.33;;
3849;SDS011;1940;51.052;13.678;2023-02-02T13:07:07;9.73;;;2.10;;
3849;SDS011;1940;51.052;13.678;2023-02-02T13:09:40;6.23;;;2.00;;
3849;SDS011;1940;51.052;13.678;2023-02-02T13:12:28;9.93;;;2.23;;
3849;SDS011;1940;51.052;13.678;2023-02-02T13:15:00;12.43;;;2.10;;
3849;SDS011;1940;51.052;13.678;2023-02-02T13:17:41;8.50;;;1.70;;
3849;SDS011;1940;51.052;13.678;2023-02-02T13:20:19;4.30;;;1.80;;
3849;SDS011;1940;51.052;13.678;2023-02-02T13:23:08;3.83;;;1.50;;
3849;SDS011;1940;51.052;13.678;2023-02-02T13:25:40;9.13;;;1.67;;
3849;SDS011;1940;51.052;13.678;2023-02-02T13:28:21;2.80;;;1.37;;
3849;SDS011;1940;51.052;13.678;2023-02-02T13:30:59;5.33;;;2.20;;
3849;SDS011;1940;51.052;13.678;2023-02-02T13:33:29;6.47;;;1.70;;
3849;SDS011;1940;51.052;13.678;2023-02-02T13:36:32;5.93;;;1.77;;
3849;SDS011;1940;51.052;13.678;2023-02-02T13:38:54;9.30;;;1.80;;
3849;SDS011;1940;51.052;13.678;2023-02-02T13:41:22;2.30;;;1.20;;
3849;SDS011;1940;51.052;13.678;2023-02-02T13:46:56;5.97;;;1.53;;
3849;SDS011;1940;51.052;13.678;2023-02-02T13:49:28;2.20;;;1.53;;
3849;SDS011;1940;51.052;13.678;2023-02-02T13:52:02;10.83;;;2.33;;
3849;SDS011;1940;51.052;13.678;2023-02-02T13:54:46;9.50;;;1.80;;
3849;SDS011;1940;51.052;13.678;2023-02-02T14:00:14;5.50;;;2.00;;
3849;SDS011;1940;51.052;13.678;2023-02-02T14:08:07;5.73;;;1.90;;
3849;SDS011;1940;51.052;13.678;2023-02-02T14:11:03;2.73;;;1.67;;
3849;SDS011;1940;51.052;13.678;2023-02-02T14:18:56;4.63;;;1.67;;
3849;SDS011;1940;51.052;13.678;2023-02-02T14:23:58;3.83;;;1.70;;
3849;SDS011;1940;51.052;13.678;2023-02-02T14:26:38;4.60;;;1.80;;
3849;SDS011;1940;51.052;13.678;2023-02-02T14:34:36;2.30;;;1.73;;
3849;SDS011;1940;51.052;13.678;2023-02-02T14:48:17;6.70;;;2.00;;
3849;SDS011;1940;51.052;13.678;2023-02-02T14:50:47;7.00;;;2.20;;
3849;SDS011;1940;51.052;13.678;2023-02-02T14:53:21;5.07;;;2.27;;
3849;SDS011;1940;51.052;13.678;2023-02-02T14:56:02;5.87;;;2.30;;
3849;SDS011;1940;51.052;13.678;2023-02-02T14:58:44;12.27;;;2.80;;
3849;SDS011;1940;51.052;13.678;2023-02-02T15:03:55;7.23;;;2.60;;
3849;SDS011;1940;51.052;13.678;2023-02-02T15:06:41;4.90;;;1.93;;
3849;SDS011;1940;51.052;13.678;2023-02-02T15:14:22;6.57;;;2.10;;
3849;SDS011;1940;51.052;13.678;2023-02-02T15:16:54;3.20;;;1.80;;
3849;SDS011;1940;51.052;13.678;2023-02-02T15:19:27;7.43;;;2.23;;
3849;SDS011;1940;51.052;13.678;2023-02-02T15:21:58;7.63;;;2.73;;
3849;SDS011;1940;51.052;13.678;2023-02-02T15:24:31;5.50;;;2.13;;
3849;SDS011;1940;51.052;13.678;2023-02-02T15:27:00;9.00;;;2.67;;
3849;SDS011;1940;51.052;13.678;2023-02-02T15:29:45;4.30;;;2.00;;
3849;SDS011;1940;51.052;13.678;2023-02-02T15:32:17;4.60;;;1.80;;
3849;SDS011;1940;51.052;13.678;2023-02-02T15:34:47;8.87;;;2.10;;
3849;SDS011;1940;51.052;13.678;2023-02-02T15:37:18;5.50;;;2.00;;
3849;SDS011;1940;51.052;13.678;2023-02-02T15:39:50;9.53;;;2.70;;
3849;SDS011;1940;51.052;13.678;2023-02-02T15:42:18;6.10;;;2.40;;
3849;SDS011;1940;51.052;13.678;2023-02-02T15:45:27;6.77;;;2.00;;
3849;SDS011;1940;51.052;13.678;2023-02-02T15:47:52;9.67;;;2.33;;
3849;SDS011;1940;51.052;13.678;2023-02-02T15:50:18;8.73;;;2.40;;
3849;SDS011;1940;51.052;13.678;2023-02-02T15:52:48;5.50;;;2.27;;
3849;SDS011;1940;51.052;13.678;2023-02-02T15:55:19;4.83;;;2.07;;
3849;SDS011;1940;51.052;13.678;2023-02-02T15:57:45;6.40;;;1.97;;
3849;SDS011;1940;51.052;13.678;2023-02-02T16:00:22;5.83;;;2.07;;
3849;SDS011;1940;51.052;13.678;2023-02-02T16:03:00;8.07;;;2.47;;
3849;SDS011;1940;51.052;13.678;2023-02-02T16:07:59;5.67;;;3.00;;
3849;SDS011;1940;51.052;13.678;2023-02-02T16:10:25;7.57;;;2.20;;
3849;SDS011;1940;51.052;13.678;2023-02-02T16:12:51;9.60;;;3.03;;
3849;SDS011;1940;51.052;13.678;2023-02-02T16:15:23;4.73;;;2.80;;
3849;SDS011;1940;51.052;13.678;2023-02-02T16:18:01;6.30;;;3.43;;
3849;SDS011;1940;51.052;13.678;2023-02-02T16:20:28;12.80;;;3.87;;
3849;SDS011;1940;51.052;13.678;2023-02-02T16:22:57;4.17;;;3.13;;
3849;SDS011;1940;51.052;13.678;2023-02-02T16:25:29;7.03;;;3.67;;
3849;SDS011;1940;51.052;13.678;2023-02-02T16:27:57;8.00;;;3.10;;
3849;SDS011;1940;51.052;13.678;2023-02-02T16:32:56;7.10;;;3.17;;
3849;SDS011;1940;51.052;13.678;2023-02-02T16:35:32;7.00;;;2.43;;
3849;SDS011;1940;51.052;13.678;2023-02-02T16:38:10;6.73;;;2.23;;
3849;SDS011;1940;51.052;13.678;2023-02-02T16:40:36;3.97;;;1.80;;
3849;SDS011;1940;51.052;13.678;2023-02-02T16:43:03;4.57;;;2.87;;
3849;SDS011;1940;51.052;13.678;2023-02-02T16:45:46;6.80;;;2.20;;
3849;SDS011;1940;51.052;13.678;2023-02-02T16:48:29;3.60;;;1.60;;
3849;SDS011;1940;51.052;13.678;2023-02-02T16:53:51;5.70;;;2.00;;
3849;SDS011;1940;51.052;13.678;2023-02-02T16:56:26;5.80;;;1.87;;
3849;SDS011;1940;51.052;13.678;2023-02-02T16:58:53;4.77;;;2.40;;
3849;SDS011;1940;51.052;13.678;2023-02-02T17:01:21;7.80;;;2.03;;
3849;SDS011;1940;51.052;13.678;2023-02-02T17:04:06;3.57;;;1.90;;
3849;SDS011;1940;51.052;13.678;2023-02-02T17:06:40;9.83;;;2.10;;
3849;SDS011;1940;51.052;13.678;2023-02-02T17:09:12;5.67;;;2.93;;
3849;SDS011;1940;51.052;13.678;2023-02-02T17:12:00;8.20;;;2.90;;
3849;SDS011;1940;51.052;13.678;2023-02-02T17:17:43;6.27;;;2.87;;